createdAt,value
2023-04-02T00:02:22.953Z,100.00
2023-04-02T00:05:15.184Z,100.00
2023-04-02T00:07:44.453Z,100.00
2023-04-02T00:10:27.182Z,100.00
2023-04-02T00:13:10.483Z,100.00
2023-04-02T00:15:50.292Z,100.00
2023-04-02T00:18:21.425Z,100.00
2023-04-02T00:21:19.258Z,100.00
2023-04-02T00:23:47.745Z,100.00
2023-04-02T00:26:39.601Z,100.00
2023-04-02T00:29:07.481Z,100.00
2023-04-02T00:31:38.062Z,100.00
2023-04-02T00:34:08.508Z,100.00
2023-04-02T00:36:37.580Z,100.00
2023-04-02T00:39:14.573Z,100.00
2023-04-02T00:41:42.580Z,100.00
2023-04-02T00:44:14.323Z,100.00
2023-04-02T00:46:44.115Z,100.00
2023-04-02T00:49:15.348Z,100.00
2023-04-02T00:51:49.624Z,100.00
2023-04-02T00:54:21.545Z,100.00
2023-04-02T00:56:53.756Z,100.00
2023-04-02T00:59:32.836Z,100.00
2023-04-02T01:02:15.370Z,100.00
2023-04-02T01:04:56.083Z,100.00
2023-04-02T01:07:39.684Z,100.00
2023-04-02T01:10:25.451Z,100.00
2023-04-02T01:13:08.283Z,100.00
2023-04-02T01:15:42.778Z,100.00
2023-04-02T01:18:25.094Z,100.00
2023-04-02T01:21:07.578Z,100.00
2023-04-02T01:23:59.483Z,100.00
2023-04-02T01:26:54.061Z,100.00
2023-04-02T01:29:38.228Z,100.00
2023-04-02T01:32:10.132Z,100.00
2023-04-02T01:34:38.909Z,100.00
2023-04-02T01:37:30.749Z,100.00
2023-04-02T01:40:03.892Z,100.00
2023-04-02T01:42:46.855Z,100.00
2023-04-02T01:45:17.746Z,100.00
2023-04-02T01:47:45.877Z,100.00
2023-04-02T01:50:19.545Z,100.00
2023-04-02T01:52:56.080Z,100.00
2023-04-02T01:55:46.524Z,100.00
2023-04-02T01:58:18.888Z,100.00
2023-04-02T02:00:56.542Z,100.00
2023-04-02T02:03:24.128Z,100.00
2023-04-02T02:05:51.740Z,100.00
2023-04-02T02:08:32.400Z,100.00
2023-04-02T02:11:00.816Z,100.00
2023-04-02T02:13:28.399Z,100.00
2023-04-02T02:16:00.459Z,100.00
2023-04-02T02:18:28.846Z,100.00
2023-04-02T02:21:00.068Z,100.00
2023-04-02T02:23:28.955Z,100.00
2023-04-02T02:25:56.438Z,100.00
2023-04-02T02:28:27.759Z,100.00
2023-04-02T02:31:21.646Z,100.00
2023-04-02T02:33:58.132Z,100.00
2023-04-02T02:36:37.856Z,100.00
2023-04-02T02:39:15.947Z,100.00
2023-04-02T02:41:50.664Z,100.00
2023-04-02T02:44:43.801Z,100.00
2023-04-02T02:47:23.788Z,100.00
2023-04-02T02:49:55.097Z,100.00
2023-04-02T02:52:45.122Z,100.00
2023-04-02T02:55:37.187Z,100.00
2023-04-02T02:58:09.026Z,100.00
2023-04-02T03:00:37.545Z,100.00
2023-04-02T03:03:11.957Z,100.00
2023-04-02T03:05:41.005Z,100.00
2023-04-02T03:08:36.231Z,100.00
2023-04-02T03:11:18.696Z,100.00
2023-04-02T03:13:50.822Z,100.00
2023-04-02T03:16:29.535Z,100.00
2023-04-02T03:19:34.850Z,100.00
2023-04-02T03:22:18.849Z,100.00
2023-04-02T03:24:52.419Z,100.00
2023-04-02T03:27:35.068Z,100.00
2023-04-02T03:30:14.147Z,100.00
2023-04-02T03:32:44.002Z,100.00
2023-04-02T03:35:30.501Z,100.00
2023-04-02T03:38:10.774Z,100.00
2023-04-02T03:41:18.494Z,93.01
2023-04-02T03:43:50.166Z,90.60
2023-04-02T03:46:40.222Z,87.30
2023-04-02T03:49:14.585Z,86.56
2023-04-02T03:52:25.331Z,86.41
2023-04-02T03:54:59.334Z,90.28
2023-04-02T03:57:40.793Z,90.34
2023-04-02T04:00:15.073Z,87.69
2023-04-02T04:02:47.907Z,85.28
2023-04-02T04:05:42.021Z,83.93
2023-04-02T04:08:20.270Z,88.01
2023-04-02T04:10:55.937Z,85.77
2023-04-02T04:13:34.950Z,88.17
2023-04-02T04:16:11.131Z,94.04
2023-04-02T04:19:04.711Z,98.80
2023-04-02T04:21:32.164Z,98.29
2023-04-02T04:24:17.115Z,100.00
2023-04-02T04:26:47.885Z,100.00
2023-04-02T04:29:38.974Z,100.00
2023-04-02T04:32:23.096Z,100.00
2023-04-02T04:34:52.191Z,100.00
2023-04-02T04:37:25.522Z,100.00
2023-04-02T04:40:02.196Z,100.00
2023-04-02T04:42:33.267Z,100.00
2023-04-02T04:45:08.814Z,100.00
2023-04-02T04:47:44.146Z,100.00
2023-04-02T04:50:30.887Z,100.00
2023-04-02T04:53:05.853Z,100.00
2023-04-02T04:55:40.634Z,100.00
2023-04-02T04:58:26.354Z,100.00
2023-04-02T05:00:53.808Z,100.00
2023-04-02T05:03:45.388Z,100.00
2023-04-02T05:06:17.635Z,100.00
2023-04-02T05:08:49.193Z,100.00
2023-04-02T05:11:24.544Z,100.00
2023-04-02T05:14:01.972Z,100.00
2023-04-02T05:16:48.187Z,100.00
2023-04-02T05:19:23.646Z,100.00
2023-04-02T05:22:41.408Z,100.00
2023-04-02T05:25:31.043Z,100.00
2023-04-02T05:28:03.253Z,100.00
2023-04-02T05:30:43.568Z,100.00
2023-04-02T05:33:22.743Z,100.00
2023-04-02T05:36:01.044Z,100.00
2023-04-02T05:38:44.102Z,98.68
2023-04-02T05:41:27.775Z,90.31
2023-04-02T05:44:29.001Z,89.01
2023-04-02T05:47:14.169Z,88.14
2023-04-02T05:49:52.239Z,86.47
2023-04-02T05:52:27.012Z,85.97
2023-04-02T05:55:03.735Z,85.34
2023-04-02T05:57:49.492Z,81.59
2023-04-02T06:00:40.710Z,75.23
2023-04-02T06:03:30.794Z,72.60
2023-04-02T06:06:03.735Z,67.77
2023-04-02T06:08:42.645Z,72.14
2023-04-02T06:11:14.215Z,69.42
2023-04-02T06:13:41.543Z,66.63
2023-04-02T06:16:13.925Z,64.04
2023-04-02T06:18:42.778Z,65.35
2023-04-02T06:21:15.080Z,64.52
2023-04-02T06:24:03.381Z,65.80
2023-04-02T06:26:33.794Z,65.11
2023-04-02T06:29:28.441Z,67.16
2023-04-02T06:32:01.280Z,69.95
2023-04-02T06:34:30.757Z,67.81
2023-04-02T06:37:11.685Z,69.20
2023-04-02T06:39:39.279Z,66.29
2023-04-02T06:42:13.397Z,68.17
2023-04-02T06:44:41.058Z,69.95
2023-04-02T06:47:40.222Z,69.86
2023-04-02T06:50:15.147Z,70.27
2023-04-02T06:53:02.275Z,71.83
2023-04-02T06:55:50.522Z,71.46
2023-04-02T06:58:19.664Z,71.96
2023-04-02T07:00:49.712Z,71.94
2023-04-02T07:03:23.884Z,74.99
2023-04-02T07:05:51.925Z,71.24
2023-04-02T07:08:19.803Z,71.99
2023-04-02T07:10:47.922Z,71.38
2023-04-02T07:13:21.706Z,78.02
2023-04-02T07:15:52.375Z,72.25
2023-04-02T07:18:32.317Z,70.21
2023-04-02T07:21:00.545Z,70.88
2023-04-02T07:23:28.046Z,74.14
2023-04-02T07:25:57.068Z,69.27
2023-04-02T07:28:25.090Z,68.57
2023-04-02T07:30:52.598Z,70.93
2023-04-02T07:33:23.666Z,72.08
2023-04-02T07:35:53.424Z,69.47
2023-04-02T07:38:20.739Z,70.53
2023-04-02T07:40:48.151Z,69.23
2023-04-02T07:43:15.738Z,72.29
2023-04-02T07:45:46.015Z,68.18
2023-04-02T07:48:14.262Z,68.52
2023-04-02T07:50:41.740Z,67.14
2023-04-02T07:53:26.180Z,69.87
2023-04-02T07:55:53.599Z,66.19
2023-04-02T07:58:20.935Z,66.61
2023-04-02T08:00:48.746Z,66.76
2023-04-02T08:03:16.208Z,67.29
2023-04-02T08:05:43.710Z,67.12
2023-04-02T08:08:10.955Z,65.76
2023-04-02T08:10:38.432Z,65.65
2023-04-02T08:13:06.339Z,65.57
2023-04-02T08:15:33.823Z,64.17
2023-04-02T08:18:01.353Z,63.92
2023-04-02T08:20:29.496Z,62.65
2023-04-02T08:22:57.217Z,63.10
2023-04-02T08:25:24.564Z,63.13
2023-04-02T08:27:51.886Z,64.18
2023-04-02T08:30:19.720Z,62.62
2023-04-02T08:32:48.202Z,61.70
2023-04-02T08:35:16.701Z,60.76
2023-04-02T08:37:44.145Z,60.90
2023-04-02T08:40:22.649Z,60.40
2023-04-02T08:43:10.989Z,62.03
2023-04-02T08:46:00.253Z,61.86
2023-04-02T08:48:30.479Z,61.24
2023-04-02T08:50:58.156Z,59.13
2023-04-02T08:53:30.804Z,60.85
2023-04-02T08:56:07.756Z,58.51
2023-04-02T08:58:59.328Z,60.47
2023-04-02T09:01:51.428Z,58.87
2023-04-02T09:04:22.285Z,59.46
2023-04-02T09:06:51.785Z,57.71
2023-04-02T09:09:20.156Z,56.99
2023-04-02T09:11:57.772Z,58.19
2023-04-02T09:14:30.845Z,62.10
2023-04-02T09:17:03.857Z,57.57
2023-04-02T09:19:37.401Z,58.12
2023-04-02T09:22:22.274Z,54.83
2023-04-02T09:24:58.170Z,56.36
2023-04-02T09:27:31.726Z,57.86
2023-04-02T09:30:06.300Z,57.52
2023-04-02T09:32:46.020Z,57.89
2023-04-02T09:35:24.518Z,56.39
2023-04-02T09:38:07.427Z,57.73
2023-04-02T09:40:49.989Z,58.99
2023-04-02T09:43:23.357Z,60.13
2023-04-02T09:46:04.242Z,56.96
2023-04-02T09:48:51.488Z,55.87
2023-04-02T09:51:24.856Z,54.29
2023-04-02T09:54:16.341Z,52.77
2023-04-02T09:57:04.507Z,55.25
2023-04-02T09:59:31.999Z,56.40
2023-04-02T10:02:03.321Z,53.96
2023-04-02T10:04:47.966Z,54.27
2023-04-02T10:07:39.129Z,50.99
2023-04-02T10:10:20.780Z,52.27
2023-04-02T10:13:00.908Z,52.84
2023-04-02T10:15:40.942Z,53.58
2023-04-02T10:18:16.531Z,52.95
2023-04-02T10:20:51.282Z,53.20
2023-04-02T10:23:20.165Z,53.89
2023-04-02T10:26:15.287Z,51.17
2023-04-02T10:28:48.701Z,54.77
2023-04-02T10:31:58.170Z,52.17
2023-04-02T10:34:42.501Z,53.15
2023-04-02T10:37:51.119Z,49.45
2023-04-02T10:40:28.805Z,47.41
2023-04-02T10:43:07.269Z,50.09
2023-04-02T10:46:10.018Z,51.81
2023-04-02T10:48:52.931Z,51.92
2023-04-02T10:51:32.239Z,51.26
2023-04-02T10:53:59.633Z,53.90
2023-04-02T10:56:38.190Z,50.59
2023-04-02T10:59:29.627Z,50.30
2023-04-02T11:02:00.471Z,51.22
2023-04-02T11:04:34.005Z,57.88
2023-04-02T11:07:13.835Z,54.70
2023-04-02T11:09:45.862Z,55.87
2023-04-02T11:12:55.263Z,53.39
2023-04-02T11:15:25.285Z,53.03
2023-04-02T11:17:52.907Z,54.18
2023-04-02T11:21:02.420Z,52.48
2023-04-02T11:23:33.459Z,49.70
2023-04-02T11:26:38.357Z,48.97
2023-04-02T11:29:27.910Z,47.69
2023-04-02T11:32:23.025Z,48.48
2023-04-02T11:35:03.098Z,54.52
2023-04-02T11:37:44.145Z,51.57
2023-04-02T11:40:11.487Z,50.40
2023-04-02T11:42:44.569Z,51.65
2023-04-02T11:45:21.157Z,52.54
2023-04-02T11:48:01.108Z,55.08
2023-04-02T11:50:36.109Z,60.27
2023-04-02T11:53:34.062Z,62.16
2023-04-02T11:56:29.793Z,65.47
2023-04-02T11:59:16.482Z,70.40
2023-04-02T12:02:09.369Z,72.28
2023-04-02T12:05:13.335Z,75.98
2023-04-02T12:08:08.099Z,80.69
2023-04-02T12:11:06.045Z,85.21
2023-04-02T12:13:39.533Z,82.54
2023-04-02T12:16:09.547Z,82.95
2023-04-02T12:18:46.116Z,87.73
2023-04-02T12:21:18.179Z,88.20
2023-04-02T12:23:47.580Z,85.97
2023-04-02T12:26:34.024Z,86.36
2023-04-02T12:29:26.859Z,85.97
2023-04-02T12:31:56.334Z,81.21
2023-04-02T12:34:27.259Z,78.61
2023-04-02T12:36:58.676Z,77.93
2023-04-02T12:39:28.383Z,82.44
2023-04-02T12:41:57.436Z,72.91
2023-04-02T12:44:27.684Z,69.24
2023-04-02T12:46:56.224Z,65.27
2023-04-02T12:49:43.263Z,71.94
2023-04-02T12:52:14.167Z,68.70
2023-04-02T12:54:51.086Z,62.97
2023-04-02T12:57:27.857Z,64.06
2023-04-02T12:59:56.775Z,64.46
2023-04-02T13:02:29.583Z,67.86
2023-04-02T13:05:00.598Z,68.93
2023-04-02T13:07:31.597Z,69.33
2023-04-02T13:10:01.881Z,65.47
2023-04-02T13:12:36.099Z,68.76
2023-04-02T13:15:34.219Z,66.91
2023-04-02T13:18:13.572Z,72.74
2023-04-02T13:20:54.146Z,69.83
2023-04-02T13:23:30.498Z,70.57
2023-04-02T13:26:11.716Z,69.54
2023-04-02T13:28:39.181Z,68.44
2023-04-02T13:31:06.585Z,71.74
2023-04-02T13:33:34.367Z,67.61
2023-04-02T13:36:01.810Z,67.98
2023-04-02T13:38:29.117Z,67.34
2023-04-02T13:40:57.414Z,64.76
2023-04-02T13:43:24.958Z,61.79
2023-04-02T13:45:54.440Z,62.44
2023-04-02T13:48:21.962Z,59.45
2023-04-02T13:50:49.406Z,60.79
2023-04-02T13:53:32.853Z,59.58
2023-04-02T13:56:00.189Z,58.96
2023-04-02T13:58:27.530Z,60.37
2023-04-02T14:00:55.079Z,60.24
2023-04-02T14:03:22.859Z,61.63
2023-04-02T14:06:13.026Z,59.14
2023-04-02T14:08:59.121Z,61.77
2023-04-02T14:11:47.913Z,62.38
2023-04-02T14:14:37.875Z,60.38
2023-04-02T14:17:17.289Z,60.79
2023-04-02T14:20:09.177Z,61.40
2023-04-02T14:23:01.618Z,64.20
2023-04-02T14:25:31.741Z,62.73
2023-04-02T14:28:08.597Z,67.22
2023-04-02T14:30:51.419Z,63.39
2023-04-02T14:33:34.214Z,63.67
2023-04-02T14:36:10.018Z,61.43
2023-04-02T14:38:41.237Z,61.22
2023-04-02T14:41:17.725Z,60.66
2023-04-02T14:44:04.680Z,58.83
2023-04-02T14:46:37.509Z,58.81
2023-04-02T14:49:31.816Z,59.27
2023-04-02T14:52:13.013Z,63.16
2023-04-02T14:54:53.293Z,66.79
2023-04-02T14:57:29.008Z,65.63
2023-04-02T15:00:35.206Z,65.46
2023-04-02T15:03:09.729Z,63.55
2023-04-02T15:06:01.628Z,61.87
2023-04-02T15:09:02.165Z,60.93
2023-04-02T15:11:46.100Z,59.34
2023-04-02T15:14:32.818Z,61.44
2023-04-02T15:17:00.175Z,62.59
2023-04-02T15:19:27.503Z,61.79
2023-04-02T15:22:05.274Z,63.10
2023-04-02T15:24:53.090Z,62.74
2023-04-02T15:27:48.160Z,66.45
2023-04-02T15:30:24.877Z,58.31
2023-04-02T15:32:57.014Z,59.44
2023-04-02T15:35:49.492Z,59.05
2023-04-02T15:38:23.419Z,62.78
2023-04-02T15:41:13.000Z,57.63
2023-04-02T15:44:02.525Z,57.41
2023-04-02T15:46:40.679Z,54.08
2023-04-02T15:49:20.346Z,55.43
2023-04-02T15:52:09.593Z,55.62
2023-04-02T15:54:36.902Z,56.07
2023-04-02T15:57:26.519Z,60.03
2023-04-02T16:00:03.041Z,56.22
2023-04-02T16:02:45.369Z,56.02
2023-04-02T16:05:34.593Z,55.20
2023-04-02T16:08:11.195Z,59.74
2023-04-02T16:10:42.918Z,55.62
2023-04-02T16:13:15.576Z,57.04
2023-04-02T16:15:52.957Z,57.94
2023-04-02T16:18:33.012Z,60.39
2023-04-02T16:21:02.942Z,59.43
2023-04-02T16:23:40.163Z,60.72
2023-04-02T16:26:13.812Z,62.24
2023-04-02T16:29:03.000Z,64.81
2023-04-02T16:31:52.351Z,63.21
2023-04-02T16:34:32.403Z,65.07
2023-04-02T16:37:11.332Z,65.85
2023-04-02T16:39:52.766Z,66.35
2023-04-02T16:42:43.062Z,66.41
2023-04-02T16:45:28.963Z,67.34
2023-04-02T16:48:11.188Z,68.03
2023-04-02T16:50:47.643Z,68.98
2023-04-02T16:53:33.313Z,68.83
2023-04-02T16:56:08.938Z,68.06
2023-04-02T16:59:00.617Z,70.45
2023-04-02T17:01:37.236Z,65.93
2023-04-02T17:04:29.660Z,66.96
2023-04-02T17:07:29.154Z,68.48
2023-04-02T17:10:26.272Z,68.02
2023-04-02T17:13:03.559Z,67.11
2023-04-02T17:15:38.046Z,68.80
2023-04-02T17:18:17.874Z,68.50
2023-04-02T17:20:47.499Z,68.71
2023-04-02T17:23:16.844Z,67.63
2023-04-02T17:25:57.872Z,69.25
2023-04-02T17:28:28.196Z,68.32
2023-04-02T17:30:59.892Z,67.52
2023-04-02T17:33:30.904Z,68.84
2023-04-02T17:36:22.656Z,69.91
2023-04-02T17:39:18.097Z,74.52
2023-04-02T17:42:20.533Z,70.60
2023-04-02T17:45:05.689Z,69.17
2023-04-02T17:47:59.551Z,67.81
2023-04-02T17:50:50.426Z,69.18
2023-04-02T17:53:45.093Z,68.21
2023-04-02T17:56:46.220Z,68.27
2023-04-02T17:59:55.025Z,69.35
2023-04-02T18:02:52.876Z,69.91
2023-04-02T18:05:44.361Z,70.29
2023-04-02T18:08:38.251Z,71.13
2023-04-02T18:11:50.564Z,70.67
2023-04-02T18:14:59.011Z,71.23
2023-04-02T18:18:05.021Z,71.11
2023-04-02T18:21:00.506Z,72.32
2023-04-02T18:24:10.358Z,72.83
2023-04-02T18:27:12.217Z,73.33
2023-04-02T18:30:31.579Z,74.62
2023-04-02T18:33:54.054Z,74.08
2023-04-02T18:36:52.855Z,74.55
2023-04-02T18:39:58.676Z,74.80
2023-04-02T18:43:17.665Z,75.92
2023-04-02T18:46:39.689Z,75.07
2023-04-02T18:49:49.737Z,75.08
2023-04-02T18:52:42.292Z,77.80
2023-04-02T18:55:34.444Z,76.99
2023-04-02T18:59:16.592Z,77.06
2023-04-02T19:02:40.024Z,79.40
2023-04-02T19:05:35.889Z,77.30
2023-04-02T19:08:28.776Z,77.89
2023-04-02T19:11:22.892Z,77.55
2023-04-02T19:14:17.694Z,76.97
2023-04-02T19:17:26.849Z,76.59
2023-04-02T19:20:40.120Z,76.54
2023-04-02T19:23:57.153Z,76.27
2023-04-02T19:27:07.778Z,76.57
2023-04-02T19:30:28.565Z,78.08
2023-04-02T19:33:37.185Z,79.05
2023-04-02T19:36:46.952Z,79.18
2023-04-02T19:40:03.705Z,80.35
2023-04-02T19:42:55.286Z,78.63
2023-04-02T19:45:48.228Z,78.94
2023-04-02T19:48:50.072Z,79.17
2023-04-02T19:51:43.779Z,80.16
2023-04-02T19:54:36.385Z,79.54
2023-04-02T19:57:30.359Z,79.82
2023-04-02T20:00:25.079Z,81.14
2023-04-02T20:03:17.738Z,80.94
2023-04-02T20:06:09.640Z,80.15
2023-04-02T20:09:01.205Z,80.52
2023-04-02T20:11:53.445Z,83.19
2023-04-02T20:14:45.277Z,82.08
2023-04-02T20:17:39.901Z,80.98
2023-04-02T20:20:31.425Z,81.77
2023-04-02T20:23:23.298Z,81.89
2023-04-02T20:26:15.505Z,82.27
2023-04-02T20:29:10.402Z,84.30
2023-04-02T20:32:02.145Z,84.79
2023-04-02T20:34:54.509Z,85.07
2023-04-02T20:37:46.384Z,84.09
2023-04-02T20:40:42.429Z,84.04
2023-04-02T20:43:37.877Z,83.90
2023-04-02T20:46:29.160Z,84.87
2023-04-02T20:49:21.301Z,84.43
2023-04-02T20:52:13.683Z,85.61
2023-04-02T20:55:08.972Z,85.28
2023-04-02T20:58:01.232Z,85.14
2023-04-02T21:00:53.020Z,85.78
2023-04-02T21:03:45.556Z,85.85
2023-04-02T21:06:39.226Z,86.32
2023-04-02T21:09:31.607Z,86.96
2023-04-02T21:12:23.182Z,85.10
2023-04-02T21:15:15.408Z,84.46
2023-04-02T21:18:09.994Z,84.72
2023-04-02T21:20:40.763Z,86.15
2023-04-02T21:23:08.217Z,89.61
2023-04-02T21:25:35.832Z,86.27
2023-04-02T21:28:06.413Z,85.83
2023-04-02T21:30:33.784Z,84.95
2023-04-02T21:33:04.515Z,87.19
2023-04-02T21:35:31.842Z,86.77
2023-04-02T21:37:59.255Z,86.73
2023-04-02T21:40:27.621Z,87.14
2023-04-02T21:42:55.019Z,89.55
2023-04-02T21:45:22.348Z,87.15
2023-04-02T21:47:49.778Z,87.62
2023-04-02T21:50:17.637Z,88.12
2023-04-02T21:52:48.202Z,89.66
2023-04-02T21:55:19.284Z,89.12
2023-04-02T21:57:49.782Z,88.04
2023-04-02T22:00:17.410Z,88.85
2023-04-02T22:02:46.046Z,89.09
2023-04-02T22:05:13.613Z,89.12
2023-04-02T22:07:41.423Z,90.25
2023-04-02T22:10:09.070Z,92.02
2023-04-02T22:12:36.989Z,91.22
2023-04-02T22:15:04.736Z,90.56
2023-04-02T22:17:36.121Z,91.48
2023-04-02T22:20:03.775Z,91.87
2023-04-02T22:22:31.773Z,93.59
2023-04-02T22:24:59.230Z,92.06
2023-04-02T22:27:26.800Z,91.72
2023-04-02T22:29:54.144Z,90.39
2023-04-02T22:32:21.552Z,92.05
2023-04-02T22:34:48.996Z,91.07
2023-04-02T22:37:16.335Z,92.09
2023-04-02T22:39:43.684Z,92.88
2023-04-02T22:42:11.009Z,93.30
2023-04-02T22:44:38.433Z,93.24
2023-04-02T22:47:05.796Z,93.22
2023-04-02T22:49:33.192Z,92.63
2023-04-02T22:52:00.582Z,93.21
2023-04-02T22:54:28.115Z,93.68
2023-04-02T22:56:55.511Z,94.17
2023-04-02T22:59:22.835Z,94.47
2023-04-02T23:01:50.159Z,93.65
2023-04-02T23:04:21.122Z,92.53
2023-04-02T23:06:48.479Z,93.13
2023-04-02T23:09:15.815Z,93.19
2023-04-02T23:11:46.133Z,93.01
2023-04-02T23:14:15.859Z,94.91
2023-04-02T23:16:43.128Z,94.92
2023-04-02T23:19:11.435Z,95.39
2023-04-02T23:21:38.763Z,96.07
2023-04-02T23:24:11.792Z,95.15
2023-04-02T23:26:39.090Z,95.73
2023-04-02T23:29:10.301Z,94.52
2023-04-02T23:31:38.161Z,94.52
2023-04-02T23:34:05.878Z,96.75
2023-04-02T23:36:36.910Z,96.31
2023-04-02T23:39:06.912Z,95.58
2023-04-02T23:41:34.250Z,96.03
2023-04-02T23:44:02.028Z,95.55
2023-04-02T23:46:30.740Z,94.37
2023-04-02T23:48:59.664Z,96.44
2023-04-02T23:51:28.828Z,99.36
2023-04-02T23:53:56.893Z,97.89
2023-04-02T23:56:24.770Z,96.25
2023-04-02T23:58:52.112Z,94.35
